Latest Weather Observations for Lord Howe Island Windy Point

IDN60801

Issued at 5:05 pm EDT Thursday 5 March 2015 (issued every 30 minutes, with the page automatically refreshed every 10 minutes)

About weather observations | Map of weather stations | Latest weather observations for NSW | Other Formats
Station Details ID: 200715 Name: LORD HOWE ISLAND WINDY POINT Lat: -31.54 Lon: 159.07 Height: 4.0 m
Data from the previous 72 hours. | See also: Recent months for locations in New South Wales
Date/Time
EDT
Temp
°C
App
Temp
°C
Dew
Point
Rel
Hum
%
Delta-T
°C
Wind Press
QNH
hPa
Press
MSL
hPa
Rain
since 9 am
mm
Dir
 
Spd
km/h
Gust
km/h
Spd
kts
Gust
kts
05/05:00pm - - - - - NW 33 43 18 23 - - -
05/04:30pm - - - - - NW 35 43 19 23 - - -
05/04:00pm - - - - - NW 32 41 17 22 - - -
05/03:30pm - - - - - NW 30 43 16 23 - - -
05/03:00pm - - - - - NW 28 39 15 21 - - -
05/02:45pm - - - - - NW 28 50 15 27 - - -
05/02:30pm - - - - - NW 20 32 11 17 - - -
05/02:00pm - - - - - NW 24 35 13 19 - - -
05/01:30pm - - - - - NW 20 37 11 20 - - -
05/01:00pm - - - - - NW 19 26 10 14 - - -
05/12:30pm - - - - - NNW 17 28 9 15 - - -
05/12:00pm - - - - - NNW 9 13 5 7 - - -
05/11:30am - - - - - NNE 13 28 7 15 - - -
05/11:00am - - - - - NNE 11 26 6 14 - - -
05/10:30am - - - - - NNE 13 20 7 11 - - -
05/10:00am - - - - - NW 9 19 5 10 - - -
05/09:30am - - - - - NW 11 17 6 9 - - -
05/09:00am - - - - - NNW 7 13 4 7 - - -
05/08:30am - - - - - N 7 15 4 8 - - -
05/08:00am - - - - - NW 9 17 5 9 - - -
05/07:30am - - - - - NW 9 13 5 7 - - -
05/07:00am - - - - - NNW 6 13 3 7 - - -
05/06:30am - - - - - E 2 7 1 4 - - -
05/06:00am - - - - - NNE 7 11 4 6 - - -
05/05:30am - - - - - NE 9 13 5 7 - - -
05/05:00am - - - - - NNE 7 11 4 6 - - -
05/04:30am - - - - - NE 9 11 5 6 - - -
05/04:00am - - - - - N 7 11 4 6 - - -
05/03:30am - - - - - NNE 7 7 4 4 - - -
05/03:00am - - - - - NNE 7 11 4 6 - - -
05/02:30am - - - - - NNE 9 13 5 7 - - -
05/02:00am - - - - - NE 7 9 4 5 - - -
05/01:30am - - - - - NE 7 9 4 5 - - -
05/01:00am - - - - - NE 7 9 4 5 - - -
05/12:30am - - - - - NE 7 11 4 6 - - -
05/12:00am - - - - - ENE 9 13 5 7 - - -
 
Date/Time
EDT
Temp
°C
App
Temp
°C
Dew
Point
Rel
Hum
%
Delta-T
°C
Wind Press
QNH
hPa
Press
MSL
hPa
Rain
since 9 am
mm
Dir
 
Spd
km/h
Gust
km/h
Spd
kts
Gust
kts
04/11:30pm - - - - - ENE 6 9 3 5 - - -
04/11:00pm - - - - - E 6 9 3 5 - - -
04/10:30pm - - - - - ENE 6 7 3 4 - - -
04/10:00pm - - - - - ESE 9 13 5 7 - - -
04/09:30pm - - - - - ESE 11 15 6 8 - - -
04/09:00pm - - - - - ESE 11 15 6 8 - - -
04/08:30pm - - - - - ESE 13 17 7 9 - - -
04/08:00pm - - - - - ESE 13 17 7 9 - - -
04/07:30pm - - - - - ESE 13 17 7 9 - - -
04/07:00pm - - - - - SE 6 15 3 8 - - -
04/06:30pm - - - - - SE 9 13 5 7 - - -
04/06:00pm - - - - - SW 13 15 7 8 - - -
04/05:30pm - - - - - SSW 17 20 9 11 - - -
04/05:00pm - - - - - SSW 19 22 10 12 - - -
04/04:30pm - - - - - SW 17 20 9 11 - - -
04/04:00pm - - - - - SSW 19 24 10 13 - - -
04/03:30pm - - - - - SSW 9 17 5 9 - - -
04/03:00pm - - - - - SW 13 17 7 9 - - -
04/02:30pm - - - - - SW 15 19 8 10 - - -
04/02:00pm - - - - - SW 15 17 8 9 - - -
04/01:30pm - - - - - SW 15 20 8 11 - - -
04/01:00pm - - - - - SW 11 13 6 7 - - -
04/12:30pm - - - - - WSW 11 15 6 8 - - -
04/12:00pm - - - - - WNW 13 15 7 8 - - -
04/11:30am - - - - - NW 6 11 3 6 - - -
04/11:00am - - - - - ESE 17 24 9 13 - - -
04/10:30am - - - - - E 19 24 10 13 - - -
04/10:00am - - - - - E 22 26 12 14 - - -
04/09:30am - - - - - ESE 20 28 11 15 - - -
04/09:00am - - - - - E 22 26 12 14 - - -
04/08:30am - - - - - E 20 24 11 13 - - -
04/08:00am - - - - - ESE 20 24 11 13 - - -
04/07:30am - - - - - ESE 17 24 9 13 - - -
04/07:00am - - - - - ESE 15 26 8 14 - - -
04/06:30am - - - - - ESE 13 22 7 12 - - -
04/06:00am - - - - - SE 6 13 3 7 - - -
04/05:30am - - - - - NE 2 7 1 4 - - -
04/05:00am - - - - - ENE 7 9 4 5 - - -
04/04:30am - - - - - E 7 7 4 4 - - -
04/04:00am - - - - - ENE 7 7 4 4 - - -
04/03:30am - - - - - CALM 0 0 0 0 - - -
04/03:00am - - - - - CALM 0 0 0 0 - - -
04/02:30am - - - - - ENE 6 7 3 4 - - -
04/02:00am - - - - - ENE 7 9 4 5 - - -
04/01:30am - - - - - ENE 7 9 4 5 - - -
04/01:00am - - - - - E 6 11 3 6 - - -
04/12:30am - - - - - ESE 9 15 5 8 - - -
04/12:00am - - - - - ESE 11 13 6 7 - - -
 
Date/Time
EDT
Temp
°C
App
Temp
°C
Dew
Point
Rel
Hum
%
Delta-T
°C
Wind Press
QNH
hPa
Press
MSL
hPa
Rain
since 9 am
mm
Dir
 
Spd
km/h
Gust
km/h
Spd
kts
Gust
kts
03/11:30pm - - - - - ESE 13 19 7 10 - - -
03/11:00pm - - - - - ESE 15 20 8 11 - - -
03/10:30pm - - - - - ESE 15 19 8 10 - - -
03/10:00pm - - - - - ESE 13 17 7 9 - - -
03/09:30pm - - - - - ESE 13 19 7 10 - - -
03/09:00pm - - - - - ESE 17 22 9 12 - - -
03/08:30pm - - - - - ESE 15 24 8 13 - - -
03/08:00pm - - - - - ESE 15 20 8 11 - - -
03/07:30pm - - - - - ESE 15 22 8 12 - - -
03/07:00pm - - - - - ESE 20 26 11 14 - - -
03/06:30pm - - - - - ESE 20 28 11 15 - - -
03/06:00pm - - - - - E 24 32 13 17 - - -
03/05:30pm - - - - - ESE 19 24 10 13 - - -
03/05:00pm - - - - - ESE 19 30 10 16 - - -
03/04:30pm - - - - - ESE 20 28 11 15 - - -
03/04:00pm - - - - - ESE 22 35 12 19 - - -
03/03:30pm - - - - - WSW 9 24 5 13 - - -
03/03:00pm - - - - - SE 11 24 6 13 - - -
03/02:30pm - - - - - E 22 32 12 17 - - -
03/02:00pm - - - - - E 20 32 11 17 - - -
03/01:30pm - - - - - SE 17 30 9 16 - - -
03/01:00pm - - - - - E 20 28 11 15 - - -
03/12:30pm - - - - - SSE 15 28 8 15 - - -
03/12:00pm - - - - - ESE 19 26 10 14 - - -
03/11:30am - - - - - E 24 35 13 19 - - -
03/11:00am - - - - - E 24 30 13 16 - - -
03/10:30am - - - - - E 24 32 13 17 - - -
03/10:00am - - - - - E 24 35 13 19 - - -
03/09:30am - - - - - ESE 19 28 10 15 - - -
03/09:00am - - - - - ESE 17 32 9 17 - - -
03/08:30am - - - - - ESE 17 30 9 16 - - -
03/08:00am - - - - - ESE 17 26 9 14 - - -
03/07:30am - - - - - ESE 20 33 11 18 - - -
03/07:00am - - - - - ESE 19 30 10 16 - - -
03/06:30am - - - - - ESE 17 26 9 14 - - -
03/06:00am - - - - - SE 17 28 9 15 - - -
03/05:30am - - - - - SE 15 24 8 13 - - -
03/05:00am - - - - - SE 13 20 7 11 - - -
03/04:30am - - - - - SE 13 19 7 10 - - -
03/04:00am - - - - - SE 11 19 6 10 - - -
03/03:30am - - - - - ESE 17 30 9 16 - - -
03/03:00am - - - - - SE 13 30 7 16 - - -
03/02:30am - - - - - SE 17 28 9 15 - - -
03/02:00am - - - - - ESE 15 33 8 18 - - -
03/01:30am - - - - - ESE 17 30 9 16 - - -
03/01:00am - - - - - S 20 39 11 21 - - -
03/12:30am - - - - - SE 11 20 6 11 - - -
03/12:00am - - - - - S 17 33 9 18 - - -
 
Date/Time
EDT
Temp
°C
App
Temp
°C
Dew
Point
Rel
Hum
%
Delta-T
°C
Wind Press
QNH
hPa
Press
MSL
hPa
Rain
since 9 am
mm
Dir
 
Spd
km/h
Gust
km/h
Spd
kts
Gust
kts
02/11:30pm - - - - - SE 13 26 7 14 - - -
02/11:00pm - - - - - S 13 30 7 16 - - -
02/10:30pm - - - - - SSW 19 46 10 25 - - -
02/10:00pm - - - - - S 19 44 10 24 - - -
02/09:30pm - - - - - SSE 9 19 5 10 - - -
02/09:00pm - - - - - ESE 15 32 8 17 - - -
02/08:30pm - - - - - SE 17 32 9 17 - - -
02/08:01pm - - - - - SE 24 46 13 25 - - -
02/08:00pm - - - - - SE 22 43 12 23 - - -
02/07:38pm - - - - - S 20 50 11 27 - - -
02/07:30pm - - - - - S 24 57 13 31 - - -
02/07:19pm - - - - - S 28 72 15 39 - - -
02/07:00pm - - - - - S 20 41 11 22 - - -
02/06:30pm - - - - - S 22 41 12 22 - - -
02/06:10pm - - - - - S 26 50 14 27 - - -
02/06:00pm - - - - - S 26 48 14 26 - - -
02/05:42pm - - - - - SSE 28 56 15 30 - - -
02/05:30pm - - - - - SSE 20 44 11 24 - - -

Other Formats:

Comma delimited format used in spreadsheet applications
http://www.bom.gov.au/fwo/IDN60801/IDN60801.95995.axf

JavaScript Object Notation format (JSON) in row-major order
http://www.bom.gov.au/fwo/IDN60801/IDN60801.95995.json